sensor_id;sensor_type;location;lat;lon;timestamp;P1;durP1;ratioP1;P2;durP2;ratioP2
19877;SDS011;10101;52.204;9.910;2023-12-22T00:01:51;8.23;;;2.23;;
19877;SDS011;10101;52.204;9.910;2023-12-22T00:04:18;16.33;;;3.00;;
19877;SDS011;10101;52.204;9.910;2023-12-22T00:06:46;11.97;;;1.87;;
19877;SDS011;10101;52.204;9.910;2023-12-22T00:09:14;13.97;;;2.63;;
19877;SDS011;10101;52.204;9.910;2023-12-22T00:11:40;16.50;;;2.53;;
19877;SDS011;10101;52.204;9.910;2023-12-22T00:14:07;13.30;;;2.90;;
19877;SDS011;10101;52.204;9.910;2023-12-22T00:16:34;8.87;;;1.73;;
19877;SDS011;10101;52.204;9.910;2023-12-22T00:19:03;8.77;;;1.93;;
19877;SDS011;10101;52.204;9.910;2023-12-22T00:21:29;12.23;;;2.00;;
19877;SDS011;10101;52.204;9.910;2023-12-22T00:23:58;9.17;;;1.67;;
19877;SDS011;10101;52.204;9.910;2023-12-22T00:26:24;11.83;;;2.00;;
19877;SDS011;10101;52.204;9.910;2023-12-22T00:28:51;11.83;;;2.10;;
19877;SDS011;10101;52.204;9.910;2023-12-22T00:31:18;6.07;;;1.20;;
19877;SDS011;10101;52.204;9.910;2023-12-22T00:33:45;6.80;;;1.30;;
19877;SDS011;10101;52.204;9.910;2023-12-22T00:36:12;11.50;;;2.10;;
19877;SDS011;10101;52.204;9.910;2023-12-22T00:38:39;13.10;;;2.03;;
19877;SDS011;10101;52.204;9.910;2023-12-22T00:41:07;11.23;;;2.30;;
19877;SDS011;10101;52.204;9.910;2023-12-22T00:43:35;15.70;;;2.93;;
19877;SDS011;10101;52.204;9.910;2023-12-22T00:46:02;14.03;;;2.70;;
19877;SDS011;10101;52.204;9.910;2023-12-22T00:48:29;17.10;;;2.53;;
19877;SDS011;10101;52.204;9.910;2023-12-22T00:50:56;13.47;;;1.80;;
19877;SDS011;10101;52.204;9.910;2023-12-22T00:53:22;16.70;;;2.47;;
19877;SDS011;10101;52.204;9.910;2023-12-22T00:55:49;11.27;;;2.10;;
19877;SDS011;10101;52.204;9.910;2023-12-22T00:58:17;12.03;;;2.63;;
19877;SDS011;10101;52.204;9.910;2023-12-22T01:00:44;11.03;;;2.13;;
19877;SDS011;10101;52.204;9.910;2023-12-22T01:03:11;10.00;;;2.03;;
19877;SDS011;10101;52.204;9.910;2023-12-22T01:05:38;12.27;;;2.33;;
19877;SDS011;10101;52.204;9.910;2023-12-22T01:08:05;7.27;;;1.60;;
19877;SDS011;10101;52.204;9.910;2023-12-22T01:10:32;12.83;;;2.70;;
19877;SDS011;10101;52.204;9.910;2023-12-22T01:12:58;19.77;;;2.40;;
19877;SDS011;10101;52.204;9.910;2023-12-22T01:15:27;7.83;;;1.97;;
19877;SDS011;10101;52.204;9.910;2023-12-22T01:17:53;10.17;;;2.17;;
19877;SDS011;10101;52.204;9.910;2023-12-22T01:20:20;8.63;;;1.93;;
19877;SDS011;10101;52.204;9.910;2023-12-22T01:22:47;10.00;;;2.30;;
19877;SDS011;10101;52.204;9.910;2023-12-22T01:25:13;10.40;;;1.50;;
19877;SDS011;10101;52.204;9.910;2023-12-22T01:27:40;12.47;;;2.40;;
19877;SDS011;10101;52.204;9.910;2023-12-22T01:30:07;13.87;;;2.47;;
19877;SDS011;10101;52.204;9.910;2023-12-22T01:32:36;11.33;;;2.10;;
19877;SDS011;10101;52.204;9.910;2023-12-22T01:35:02;12.73;;;2.50;;
19877;SDS011;10101;52.204;9.910;2023-12-22T01:37:34;12.97;;;2.67;;
19877;SDS011;10101;52.204;9.910;2023-12-22T01:40:01;13.83;;;1.80;;
19877;SDS011;10101;52.204;9.910;2023-12-22T01:42:27;11.90;;;2.17;;
19877;SDS011;10101;52.204;9.910;2023-12-22T01:44:54;14.60;;;1.90;;
19877;SDS011;10101;52.204;9.910;2023-12-22T01:47:21;12.57;;;2.80;;
19877;SDS011;10101;52.204;9.910;2023-12-22T01:49:49;10.57;;;1.67;;
19877;SDS011;10101;52.204;9.910;2023-12-22T01:52:16;9.20;;;1.93;;
19877;SDS011;10101;52.204;9.910;2023-12-22T01:54:44;10.20;;;1.80;;
19877;SDS011;10101;52.204;9.910;2023-12-22T01:57:11;3.17;;;1.20;;
19877;SDS011;10101;52.204;9.910;2023-12-22T01:59:42;12.03;;;1.57;;
19877;SDS011;10101;52.204;9.910;2023-12-22T02:02:09;7.50;;;1.57;;
19877;SDS011;10101;52.204;9.910;2023-12-22T02:04:36;11.17;;;1.50;;
19877;SDS011;10101;52.204;9.910;2023-12-22T02:07:05;13.30;;;1.50;;
19877;SDS011;10101;52.204;9.910;2023-12-22T02:09:33;9.40;;;1.27;;
19877;SDS011;10101;52.204;9.910;2023-12-22T02:12:00;9.90;;;2.00;;
19877;SDS011;10101;52.204;9.910;2023-12-22T02:14:28;9.27;;;1.73;;
19877;SDS011;10101;52.204;9.910;2023-12-22T02:16:55;6.90;;;1.37;;
19877;SDS011;10101;52.204;9.910;2023-12-22T02:19:36;9.13;;;1.60;;
19877;SDS011;10101;52.204;9.910;2023-12-22T02:22:09;10.10;;;1.70;;
19877;SDS011;10101;52.204;9.910;2023-12-22T02:24:39;6.20;;;1.60;;
19877;SDS011;10101;52.204;9.910;2023-12-22T02:27:09;6.93;;;1.63;;
19877;SDS011;10101;52.204;9.910;2023-12-22T02:29:45;10.70;;;1.63;;
19877;SDS011;10101;52.204;9.910;2023-12-22T02:32:17;11.97;;;1.63;;
19877;SDS011;10101;52.204;9.910;2023-12-22T02:34:49;5.17;;;1.60;;
19877;SDS011;10101;52.204;9.910;2023-12-22T02:37:17;3.77;;;1.20;;
19877;SDS011;10101;52.204;9.910;2023-12-22T02:39:47;9.00;;;1.03;;
19877;SDS011;10101;52.204;9.910;2023-12-22T02:42:14;8.23;;;1.50;;
19877;SDS011;10101;52.204;9.910;2023-12-22T02:44:41;9.10;;;1.33;;
19877;SDS011;10101;52.204;9.910;2023-12-22T02:47:08;6.73;;;1.23;;
19877;SDS011;10101;52.204;9.910;2023-12-22T02:49:35;8.30;;;1.83;;
19877;SDS011;10101;52.204;9.910;2023-12-22T02:52:01;8.03;;;1.43;;
19877;SDS011;10101;52.204;9.910;2023-12-22T02:54:28;5.33;;;1.23;;
19877;SDS011;10101;52.204;9.910;2023-12-22T02:56:58;8.23;;;1.20;;
19877;SDS011;10101;52.204;9.910;2023-12-22T02:59:25;7.03;;;1.73;;
19877;SDS011;10101;52.204;9.910;2023-12-22T03:01:53;7.77;;;1.57;;
19877;SDS011;10101;52.204;9.910;2023-12-22T03:04:20;2.00;;;0.70;;
19877;SDS011;10101;52.204;9.910;2023-12-22T03:06:46;4.23;;;1.20;;
19877;SDS011;10101;52.204;9.910;2023-12-22T03:09:13;9.40;;;1.57;;
19877;SDS011;10101;52.204;9.910;2023-12-22T03:11:40;4.87;;;1.03;;
19877;SDS011;10101;52.204;9.910;2023-12-22T03:14:08;7.33;;;1.13;;
19877;SDS011;10101;52.204;9.910;2023-12-22T03:16:35;6.97;;;2.03;;
19877;SDS011;10101;52.204;9.910;2023-12-22T03:19:01;3.87;;;1.07;;
19877;SDS011;10101;52.204;9.910;2023-12-22T03:21:28;7.57;;;1.47;;
19877;SDS011;10101;52.204;9.910;2023-12-22T03:23:55;5.13;;;1.50;;
19877;SDS011;10101;52.204;9.910;2023-12-22T03:26:21;5.00;;;1.40;;
19877;SDS011;10101;52.204;9.910;2023-12-22T03:28:48;8.37;;;1.70;;
19877;SDS011;10101;52.204;9.910;2023-12-22T03:31:16;12.67;;;1.47;;
19877;SDS011;10101;52.204;9.910;2023-12-22T03:33:43;10.77;;;1.97;;
19877;SDS011;10101;52.204;9.910;2023-12-22T03:36:09;10.23;;;1.47;;
19877;SDS011;10101;52.204;9.910;2023-12-22T03:38:36;6.13;;;1.57;;
19877;SDS011;10101;52.204;9.910;2023-12-22T03:41:03;7.27;;;1.23;;
19877;SDS011;10101;52.204;9.910;2023-12-22T03:43:30;8.10;;;2.27;;
19877;SDS011;10101;52.204;9.910;2023-12-22T03:45:57;12.37;;;2.13;;
19877;SDS011;10101;52.204;9.910;2023-12-22T03:48:25;9.93;;;1.83;;
19877;SDS011;10101;52.204;9.910;2023-12-22T03:50:52;5.63;;;1.73;;
19877;SDS011;10101;52.204;9.910;2023-12-22T03:53:18;6.83;;;2.10;;
19877;SDS011;10101;52.204;9.910;2023-12-22T03:55:45;10.90;;;2.00;;
19877;SDS011;10101;52.204;9.910;2023-12-22T03:58:12;11.17;;;2.00;;
19877;SDS011;10101;52.204;9.910;2023-12-22T04:00:39;11.60;;;1.77;;
19877;SDS011;10101;52.204;9.910;2023-12-22T04:03:05;11.70;;;2.77;;
19877;SDS011;10101;52.204;9.910;2023-12-22T04:05:33;12.63;;;1.83;;
19877;SDS011;10101;52.204;9.910;2023-12-22T04:08:00;11.40;;;1.97;;
19877;SDS011;10101;52.204;9.910;2023-12-22T04:10:27;11.27;;;2.67;;
19877;SDS011;10101;52.204;9.910;2023-12-22T04:12:53;11.50;;;1.97;;
19877;SDS011;10101;52.204;9.910;2023-12-22T04:15:20;10.13;;;1.60;;
19877;SDS011;10101;52.204;9.910;2023-12-22T04:17:47;10.87;;;2.60;;
19877;SDS011;10101;52.204;9.910;2023-12-22T04:20:14;14.63;;;2.10;;
19877;SDS011;10101;52.204;9.910;2023-12-22T04:22:42;11.33;;;1.90;;
19877;SDS011;10101;52.204;9.910;2023-12-22T04:25:09;16.43;;;2.00;;
19877;SDS011;10101;52.204;9.910;2023-12-22T04:27:36;14.37;;;1.90;;
19877;SDS011;10101;52.204;9.910;2023-12-22T04:30:02;8.00;;;1.90;;
19877;SDS011;10101;52.204;9.910;2023-12-22T04:32:30;18.93;;;2.03;;
19877;SDS011;10101;52.204;9.910;2023-12-22T04:34:56;8.57;;;1.80;;
19877;SDS011;10101;52.204;9.910;2023-12-22T04:37:23;8.33;;;1.80;;
19877;SDS011;10101;52.204;9.910;2023-12-22T04:39:51;13.13;;;1.83;;
19877;SDS011;10101;52.204;9.910;2023-12-22T04:42:18;8.63;;;1.50;;
19877;SDS011;10101;52.204;9.910;2023-12-22T04:44:45;19.70;;;2.40;;
19877;SDS011;10101;52.204;9.910;2023-12-22T04:47:11;8.03;;;1.57;;
19877;SDS011;10101;52.204;9.910;2023-12-22T04:49:38;7.47;;;1.37;;
19877;SDS011;10101;52.204;9.910;2023-12-22T04:52:05;8.47;;;1.70;;
19877;SDS011;10101;52.204;9.910;2023-12-22T04:54:32;10.67;;;1.73;;
19877;SDS011;10101;52.204;9.910;2023-12-22T04:57:00;6.50;;;1.30;;
19877;SDS011;10101;52.204;9.910;2023-12-22T04:59:26;8.83;;;1.90;;
19877;SDS011;10101;52.204;9.910;2023-12-22T05:01:53;7.00;;;1.63;;
19877;SDS011;10101;52.204;9.910;2023-12-22T05:04:20;11.07;;;1.30;;
19877;SDS011;10101;52.204;9.910;2023-12-22T05:06:47;13.27;;;1.70;;
19877;SDS011;10101;52.204;9.910;2023-12-22T05:09:14;3.13;;;1.40;;
19877;SDS011;10101;52.204;9.910;2023-12-22T05:11:41;12.30;;;1.97;;
19877;SDS011;10101;52.204;9.910;2023-12-22T05:14:09;10.70;;;1.97;;
19877;SDS011;10101;52.204;9.910;2023-12-22T05:16:36;8.87;;;1.30;;
19877;SDS011;10101;52.204;9.910;2023-12-22T05:19:03;8.20;;;1.70;;
19877;SDS011;10101;52.204;9.910;2023-12-22T05:21:30;4.43;;;1.63;;
19877;SDS011;10101;52.204;9.910;2023-12-22T05:23:56;8.90;;;1.60;;
19877;SDS011;10101;52.204;9.910;2023-12-22T05:26:23;3.37;;;1.23;;
19877;SDS011;10101;52.204;9.910;2023-12-22T05:28:55;8.53;;;1.50;;
19877;SDS011;10101;52.204;9.910;2023-12-22T05:31:23;4.03;;;1.20;;
19877;SDS011;10101;52.204;9.910;2023-12-22T05:33:50;10.40;;;1.63;;
19877;SDS011;10101;52.204;9.910;2023-12-22T05:36:17;6.10;;;0.90;;
19877;SDS011;10101;52.204;9.910;2023-12-22T05:38:44;8.23;;;1.47;;
19877;SDS011;10101;52.204;9.910;2023-12-22T05:41:10;2.67;;;0.77;;
19877;SDS011;10101;52.204;9.910;2023-12-22T05:43:37;11.00;;;1.50;;
19877;SDS011;10101;52.204;9.910;2023-12-22T05:46:04;9.63;;;1.30;;
19877;SDS011;10101;52.204;9.910;2023-12-22T05:48:35;3.67;;;0.93;;
19877;SDS011;10101;52.204;9.910;2023-12-22T05:51:01;7.17;;;1.50;;
19877;SDS011;10101;52.204;9.910;2023-12-22T05:53:32;7.07;;;1.30;;
19877;SDS011;10101;52.204;9.910;2023-12-22T05:55:59;7.60;;;1.67;;
19877;SDS011;10101;52.204;9.910;2023-12-22T05:58:25;6.33;;;1.20;;
19877;SDS011;10101;52.204;9.910;2023-12-22T06:00:52;5.27;;;1.10;;
19877;SDS011;10101;52.204;9.910;2023-12-22T06:03:19;7.13;;;1.40;;
19877;SDS011;10101;52.204;9.910;2023-12-22T06:05:47;6.80;;;1.60;;
19877;SDS011;10101;52.204;9.910;2023-12-22T06:08:14;9.70;;;1.33;;
19877;SDS011;10101;52.204;9.910;2023-12-22T06:10:40;6.73;;;1.27;;
19877;SDS011;10101;52.204;9.910;2023-12-22T06:13:07;8.07;;;1.40;;
19877;SDS011;10101;52.204;9.910;2023-12-22T06:15:34;3.40;;;1.10;;
19877;SDS011;10101;52.204;9.910;2023-12-22T06:18:01;4.70;;;1.37;;
19877;SDS011;10101;52.204;9.910;2023-12-22T06:20:28;6.03;;;1.23;;
19877;SDS011;10101;52.204;9.910;2023-12-22T06:22:56;6.33;;;1.10;;
19877;SDS011;10101;52.204;9.910;2023-12-22T06:25:22;3.90;;;1.00;;
19877;SDS011;10101;52.204;9.910;2023-12-22T06:27:49;3.20;;;0.90;;
19877;SDS011;10101;52.204;9.910;2023-12-22T06:30:16;6.40;;;1.00;;
19877;SDS011;10101;52.204;9.910;2023-12-22T06:32:43;3.47;;;1.00;;
19877;SDS011;10101;52.204;9.910;2023-12-22T06:35:10;4.97;;;1.07;;
19877;SDS011;10101;52.204;9.910;2023-12-22T06:37:36;8.40;;;1.17;;
19877;SDS011;10101;52.204;9.910;2023-12-22T06:40:05;2.23;;;0.77;;
19877;SDS011;10101;52.204;9.910;2023-12-22T06:42:33;4.60;;;0.80;;
19877;SDS011;10101;52.204;9.910;2023-12-22T06:44:59;3.77;;;0.97;;
19877;SDS011;10101;52.204;9.910;2023-12-22T06:47:26;3.40;;;0.70;;
19877;SDS011;10101;52.204;9.910;2023-12-22T06:49:53;5.20;;;0.70;;
19877;SDS011;10101;52.204;9.910;2023-12-22T06:52:19;5.73;;;0.70;;
19877;SDS011;10101;52.204;9.910;2023-12-22T06:54:46;2.87;;;0.47;;
19877;SDS011;10101;52.204;9.910;2023-12-22T06:57:14;0.17;;;0.17;;
19877;SDS011;10101;52.204;9.910;2023-12-22T06:59:42;0.63;;;0.37;;
19877;SDS011;10101;52.204;9.910;2023-12-22T07:02:08;0.30;;;0.23;;
19877;SDS011;10101;52.204;9.910;2023-12-22T07:04:35;2.10;;;0.30;;
19877;SDS011;10101;52.204;9.910;2023-12-22T07:07:02;0.10;;;0.10;;
19877;SDS011;10101;52.204;9.910;2023-12-22T07:09:30;0.20;;;0.20;;
19877;SDS011;10101;52.204;9.910;2023-12-22T07:11:57;0.83;;;0.30;;
19877;SDS011;10101;52.204;9.910;2023-12-22T07:14:25;1.50;;;0.40;;
19877;SDS011;10101;52.204;9.910;2023-12-22T07:16:51;0.67;;;0.30;;
19877;SDS011;10101;52.204;9.910;2023-12-22T07:19:18;0.50;;;0.30;;
19877;SDS011;10101;52.204;9.910;2023-12-22T07:21:45;0.60;;;0.37;;
19877;SDS011;10101;52.204;9.910;2023-12-22T07:24:12;0.63;;;0.30;;
19877;SDS011;10101;52.204;9.910;2023-12-22T07:26:38;2.23;;;0.80;;
19877;SDS011;10101;52.204;9.910;2023-12-22T07:29:05;3.03;;;0.90;;
19877;SDS011;10101;52.204;9.910;2023-12-22T07:31:34;2.67;;;0.80;;
19877;SDS011;10101;52.204;9.910;2023-12-22T07:34:00;7.10;;;1.47;;
19877;SDS011;10101;52.204;9.910;2023-12-22T07:36:27;10.07;;;0.97;;
19877;SDS011;10101;52.204;9.910;2023-12-22T07:38:54;6.90;;;1.27;;
19877;SDS011;10101;52.204;9.910;2023-12-22T07:41:22;8.07;;;1.43;;
19877;SDS011;10101;52.204;9.910;2023-12-22T07:43:49;16.77;;;2.10;;
19877;SDS011;10101;52.204;9.910;2023-12-22T07:46:18;8.50;;;1.80;;
19877;SDS011;10101;52.204;9.910;2023-12-22T07:48:48;10.97;;;1.40;;
19877;SDS011;10101;52.204;9.910;2023-12-22T07:51:15;10.63;;;1.70;;
19877;SDS011;10101;52.204;9.910;2023-12-22T07:53:42;11.93;;;2.00;;
19877;SDS011;10101;52.204;9.910;2023-12-22T07:56:09;9.00;;;1.70;;
19877;SDS011;10101;52.204;9.910;2023-12-22T07:58:36;16.77;;;2.07;;
19877;SDS011;10101;52.204;9.910;2023-12-22T08:01:03;16.10;;;2.50;;
19877;SDS011;10101;52.204;9.910;2023-12-22T08:03:30;9.93;;;2.10;;
19877;SDS011;10101;52.204;9.910;2023-12-22T08:05:59;16.73;;;1.83;;
19877;SDS011;10101;52.204;9.910;2023-12-22T08:08:25;7.70;;;1.53;;
19877;SDS011;10101;52.204;9.910;2023-12-22T08:10:52;17.17;;;2.47;;
19877;SDS011;10101;52.204;9.910;2023-12-22T08:13:19;12.17;;;1.80;;
19877;SDS011;10101;52.204;9.910;2023-12-22T08:15:46;13.70;;;2.63;;
19877;SDS011;10101;52.204;9.910;2023-12-22T08:18:12;11.83;;;1.90;;
19877;SDS011;10101;52.204;9.910;2023-12-22T08:20:39;12.03;;;2.17;;
19877;SDS011;10101;52.204;9.910;2023-12-22T08:23:07;14.77;;;2.17;;
19877;SDS011;10101;52.204;9.910;2023-12-22T08:25:34;20.90;;;6.27;;
19877;SDS011;10101;52.204;9.910;2023-12-22T08:28:00;19.93;;;4.57;;
19877;SDS011;10101;52.204;9.910;2023-12-22T08:30:27;10.67;;;2.00;;
19877;SDS011;10101;52.204;9.910;2023-12-22T08:32:54;13.83;;;2.17;;
19877;SDS011;10101;52.204;9.910;2023-12-22T08:35:21;10.30;;;2.17;;
19877;SDS011;10101;52.204;9.910;2023-12-22T08:37:47;12.90;;;2.07;;
19877;SDS011;10101;52.204;9.910;2023-12-22T08:40:15;13.13;;;2.63;;
19877;SDS011;10101;52.204;9.910;2023-12-22T08:42:42;10.13;;;2.43;;
19877;SDS011;10101;52.204;9.910;2023-12-22T08:45:09;14.77;;;2.30;;
19877;SDS011;10101;52.204;9.910;2023-12-22T08:47:36;13.60;;;2.20;;
19877;SDS011;10101;52.204;9.910;2023-12-22T08:50:02;15.03;;;2.43;;
19877;SDS011;10101;52.204;9.910;2023-12-22T08:52:32;13.13;;;2.17;;
19877;SDS011;10101;52.204;9.910;2023-12-22T08:55:00;4.40;;;1.27;;
19877;SDS011;10101;52.204;9.910;2023-12-22T08:57:28;12.10;;;2.23;;
19877;SDS011;10101;52.204;9.910;2023-12-22T08:59:54;13.60;;;2.23;;
19877;SDS011;10101;52.204;9.910;2023-12-22T09:02:21;13.50;;;1.87;;
19877;SDS011;10101;52.204;9.910;2023-12-22T09:04:48;12.80;;;2.40;;
19877;SDS011;10101;52.204;9.910;2023-12-22T09:07:16;7.77;;;1.73;;
19877;SDS011;10101;52.204;9.910;2023-12-22T09:09:42;11.77;;;2.10;;
19877;SDS011;10101;52.204;9.910;2023-12-22T09:12:09;13.20;;;1.80;;
19877;SDS011;10101;52.204;9.910;2023-12-22T09:14:37;13.60;;;2.17;;
19877;SDS011;10101;52.204;9.910;2023-12-22T09:17:04;10.47;;;2.23;;
19877;SDS011;10101;52.204;9.910;2023-12-22T09:19:31;10.20;;;1.87;;
19877;SDS011;10101;52.204;9.910;2023-12-22T09:21:58;11.03;;;1.60;;
19877;SDS011;10101;52.204;9.910;2023-12-22T09:24:25;11.33;;;1.80;;
19877;SDS011;10101;52.204;9.910;2023-12-22T09:26:52;10.77;;;1.70;;
19877;SDS011;10101;52.204;9.910;2023-12-22T09:29:18;17.00;;;2.17;;
19877;SDS011;10101;52.204;9.910;2023-12-22T09:31:48;8.63;;;1.60;;
19877;SDS011;10101;52.204;9.910;2023-12-22T09:34:15;7.37;;;1.83;;
19877;SDS011;10101;52.204;9.910;2023-12-22T09:36:41;5.23;;;1.40;;
19877;SDS011;10101;52.204;9.910;2023-12-22T09:39:08;8.17;;;1.60;;
19877;SDS011;10101;52.204;9.910;2023-12-22T09:41:35;7.53;;;1.60;;
19877;SDS011;10101;52.204;9.910;2023-12-22T09:44:02;12.80;;;2.23;;
19877;SDS011;10101;52.204;9.910;2023-12-22T09:46:31;8.77;;;1.47;;
19877;SDS011;10101;52.204;9.910;2023-12-22T09:49:01;6.87;;;1.17;;
19877;SDS011;10101;52.204;9.910;2023-12-22T09:51:29;6.70;;;1.47;;
19877;SDS011;10101;52.204;9.910;2023-12-22T09:53:57;7.77;;;1.67;;
19877;SDS011;10101;52.204;9.910;2023-12-22T09:56:24;3.20;;;0.93;;
19877;SDS011;10101;52.204;9.910;2023-12-22T09:58:51;9.20;;;1.20;;
19877;SDS011;10101;52.204;9.910;2023-12-22T10:01:21;9.80;;;2.30;;
19877;SDS011;10101;52.204;9.910;2023-12-22T10:03:48;5.87;;;1.27;;
19877;SDS011;10101;52.204;9.910;2023-12-22T10:06:16;6.17;;;1.20;;
19877;SDS011;10101;52.204;9.910;2023-12-22T10:08:44;5.33;;;1.07;;
19877;SDS011;10101;52.204;9.910;2023-12-22T10:11:15;2.67;;;0.90;;
19877;SDS011;10101;52.204;9.910;2023-12-22T10:13:43;5.27;;;0.80;;
19877;SDS011;10101;52.204;9.910;2023-12-22T10:16:10;5.97;;;1.20;;
19877;SDS011;10101;52.204;9.910;2023-12-22T10:18:37;9.23;;;1.57;;
19877;SDS011;10101;52.204;9.910;2023-12-22T10:21:04;4.63;;;1.03;;
19877;SDS011;10101;52.204;9.910;2023-12-22T10:23:32;9.97;;;1.63;;
19877;SDS011;10101;52.204;9.910;2023-12-22T10:25:59;7.37;;;1.73;;
19877;SDS011;10101;52.204;9.910;2023-12-22T10:28:26;10.73;;;1.63;;
19877;SDS011;10101;52.204;9.910;2023-12-22T10:30:53;12.80;;;1.70;;
19877;SDS011;10101;52.204;9.910;2023-12-22T10:33:24;10.00;;;1.70;;
19877;SDS011;10101;52.204;9.910;2023-12-22T10:35:53;9.23;;;1.60;;
19877;SDS011;10101;52.204;9.910;2023-12-22T10:38:20;7.93;;;1.87;;
19877;SDS011;10101;52.204;9.910;2023-12-22T10:40:48;5.50;;;1.00;;
19877;SDS011;10101;52.204;9.910;2023-12-22T10:43:16;8.43;;;1.43;;
19877;SDS011;10101;52.204;9.910;2023-12-22T10:45:42;10.13;;;1.90;;
19877;SDS011;10101;52.204;9.910;2023-12-22T10:48:10;8.93;;;1.80;;
19877;SDS011;10101;52.204;9.910;2023-12-22T10:50:38;11.73;;;1.80;;
19877;SDS011;10101;52.204;9.910;2023-12-22T10:53:06;7.60;;;1.20;;
19877;SDS011;10101;52.204;9.910;2023-12-22T10:55:34;9.50;;;1.27;;
19877;SDS011;10101;52.204;9.910;2023-12-22T10:58:02;18.40;;;2.00;;
19877;SDS011;10101;52.204;9.910;2023-12-22T11:00:30;7.00;;;1.50;;
19877;SDS011;10101;52.204;9.910;2023-12-22T11:03:00;11.07;;;1.93;;
19877;SDS011;10101;52.204;9.910;2023-12-22T11:05:31;7.77;;;2.23;;
19877;SDS011;10101;52.204;9.910;2023-12-22T11:08:00;13.77;;;2.10;;
19877;SDS011;10101;52.204;9.910;2023-12-22T11:10:28;13.90;;;1.97;;
19877;SDS011;10101;52.204;9.910;2023-12-22T11:12:57;10.37;;;2.40;;
19877;SDS011;10101;52.204;9.910;2023-12-22T11:15:26;9.60;;;3.07;;
19877;SDS011;10101;52.204;9.910;2023-12-22T11:17:53;12.30;;;2.50;;
19877;SDS011;10101;52.204;9.910;2023-12-22T11:20:22;6.97;;;2.10;;
19877;SDS011;10101;52.204;9.910;2023-12-22T11:22:51;10.17;;;3.03;;
19877;SDS011;10101;52.204;9.910;2023-12-22T11:25:18;17.50;;;4.10;;
19877;SDS011;10101;52.204;9.910;2023-12-22T11:27:46;13.97;;;3.87;;
19877;SDS011;10101;52.204;9.910;2023-12-22T11:30:16;7.00;;;1.80;;
19877;SDS011;10101;52.204;9.910;2023-12-22T11:32:46;4.90;;;0.93;;
19877;SDS011;10101;52.204;9.910;2023-12-22T11:35:15;9.83;;;1.60;;
19877;SDS011;10101;52.204;9.910;2023-12-22T11:37:42;9.57;;;1.20;;
19877;SDS011;10101;52.204;9.910;2023-12-22T11:40:11;10.10;;;2.03;;
19877;SDS011;10101;52.204;9.910;2023-12-22T11:42:38;7.17;;;1.40;;
19877;SDS011;10101;52.204;9.910;2023-12-22T11:45:09;7.07;;;1.20;;
19877;SDS011;10101;52.204;9.910;2023-12-22T11:47:36;8.23;;;1.47;;
19877;SDS011;10101;52.204;9.910;2023-12-22T11:50:05;9.63;;;2.23;;
19877;SDS011;10101;52.204;9.910;2023-12-22T11:52:35;9.63;;;1.30;;
19877;SDS011;10101;52.204;9.910;2023-12-22T11:55:02;4.70;;;0.90;;
19877;SDS011;10101;52.204;9.910;2023-12-22T11:57:29;2.07;;;0.63;;
19877;SDS011;10101;52.204;9.910;2023-12-22T11:59:56;7.63;;;1.33;;
19877;SDS011;10101;52.204;9.910;2023-12-22T12:02:23;9.37;;;1.30;;
19877;SDS011;10101;52.204;9.910;2023-12-22T12:04:50;4.70;;;1.10;;
19877;SDS011;10101;52.204;9.910;2023-12-22T12:07:37;7.00;;;1.50;;
19877;SDS011;10101;52.204;9.910;2023-12-22T12:10:05;7.23;;;1.10;;
19877;SDS011;10101;52.204;9.910;2023-12-22T12:12:33;8.40;;;1.60;;
19877;SDS011;10101;52.204;9.910;2023-12-22T12:15:05;9.10;;;1.07;;
19877;SDS011;10101;52.204;9.910;2023-12-22T12:17:37;3.73;;;1.10;;
19877;SDS011;10101;52.204;9.910;2023-12-22T12:20:04;5.67;;;1.30;;
19877;SDS011;10101;52.204;9.910;2023-12-22T12:22:32;5.93;;;1.80;;
19877;SDS011;10101;52.204;9.910;2023-12-22T12:25:01;7.47;;;1.70;;
19877;SDS011;10101;52.204;9.910;2023-12-22T12:27:28;5.87;;;1.37;;
19877;SDS011;10101;52.204;9.910;2023-12-22T12:29:55;9.27;;;2.07;;
19877;SDS011;10101;52.204;9.910;2023-12-22T12:32:23;3.47;;;1.17;;
19877;SDS011;10101;52.204;9.910;2023-12-22T12:34:50;6.53;;;1.23;;
19877;SDS011;10101;52.204;9.910;2023-12-22T12:37:18;7.60;;;1.87;;
19877;SDS011;10101;52.204;9.910;2023-12-22T12:39:45;5.87;;;1.40;;
19877;SDS011;10101;52.204;9.910;2023-12-22T12:42:15;4.27;;;0.90;;
19877;SDS011;10101;52.204;9.910;2023-12-22T12:44:42;7.70;;;1.13;;
19877;SDS011;10101;52.204;9.910;2023-12-22T12:47:13;7.63;;;1.47;;
19877;SDS011;10101;52.204;9.910;2023-12-22T12:49:40;6.03;;;0.80;;
19877;SDS011;10101;52.204;9.910;2023-12-22T12:52:11;4.93;;;0.93;;
19877;SDS011;10101;52.204;9.910;2023-12-22T12:54:39;4.10;;;1.30;;
19877;SDS011;10101;52.204;9.910;2023-12-22T12:57:06;8.80;;;1.00;;
19877;SDS011;10101;52.204;9.910;2023-12-22T12:59:34;5.20;;;0.83;;
19877;SDS011;10101;52.204;9.910;2023-12-22T13:02:00;5.63;;;1.17;;
19877;SDS011;10101;52.204;9.910;2023-12-22T13:04:36;9.73;;;1.27;;
19877;SDS011;10101;52.204;9.910;2023-12-22T13:07:03;4.60;;;1.00;;
19877;SDS011;10101;52.204;9.910;2023-12-22T13:09:31;4.67;;;1.00;;
19877;SDS011;10101;52.204;9.910;2023-12-22T13:11:58;4.50;;;0.80;;
19877;SDS011;10101;52.204;9.910;2023-12-22T13:14:25;4.50;;;1.17;;
19877;SDS011;10101;52.204;9.910;2023-12-22T13:16:54;7.43;;;1.23;;
19877;SDS011;10101;52.204;9.910;2023-12-22T13:19:23;5.87;;;1.20;;
19877;SDS011;10101;52.204;9.910;2023-12-22T13:21:50;4.63;;;1.20;;
19877;SDS011;10101;52.204;9.910;2023-12-22T13:24:17;2.60;;;1.00;;
19877;SDS011;10101;52.204;9.910;2023-12-22T13:26:44;4.50;;;1.10;;
19877;SDS011;10101;52.204;9.910;2023-12-22T13:29:11;4.50;;;1.20;;
19877;SDS011;10101;52.204;9.910;2023-12-22T13:31:39;2.50;;;0.80;;
19877;SDS011;10101;52.204;9.910;2023-12-22T13:34:09;4.87;;;1.07;;
19877;SDS011;10101;52.204;9.910;2023-12-22T13:36:36;4.67;;;0.80;;
19877;SDS011;10101;52.204;9.910;2023-12-22T13:39:04;2.80;;;0.87;;
19877;SDS011;10101;52.204;9.910;2023-12-22T13:41:32;3.43;;;0.90;;
19877;SDS011;10101;52.204;9.910;2023-12-22T13:44:02;3.90;;;1.13;;
19877;SDS011;10101;52.204;9.910;2023-12-22T13:46:29;5.50;;;1.30;;
19877;SDS011;10101;52.204;9.910;2023-12-22T13:48:56;3.73;;;1.47;;
19877;SDS011;10101;52.204;9.910;2023-12-22T13:51:25;9.47;;;1.23;;
19877;SDS011;10101;52.204;9.910;2023-12-22T13:53:52;2.60;;;0.80;;
19877;SDS011;10101;52.204;9.910;2023-12-22T13:56:18;4.33;;;1.00;;
19877;SDS011;10101;52.204;9.910;2023-12-22T13:58:45;8.60;;;1.00;;
19877;SDS011;10101;52.204;9.910;2023-12-22T14:01:12;6.03;;;1.57;;
19877;SDS011;10101;52.204;9.910;2023-12-22T14:03:41;4.67;;;1.00;;
19877;SDS011;10101;52.204;9.910;2023-12-22T14:06:08;6.70;;;1.73;;
19877;SDS011;10101;52.204;9.910;2023-12-22T14:08:36;9.57;;;1.73;;
19877;SDS011;10101;52.204;9.910;2023-12-22T14:11:03;6.20;;;1.03;;
19877;SDS011;10101;52.204;9.910;2023-12-22T14:13:29;10.10;;;1.10;;
19877;SDS011;10101;52.204;9.910;2023-12-22T14:15:56;7.10;;;1.13;;
19877;SDS011;10101;52.204;9.910;2023-12-22T14:18:23;5.53;;;1.43;;
19877;SDS011;10101;52.204;9.910;2023-12-22T14:20:50;7.10;;;1.13;;
19877;SDS011;10101;52.204;9.910;2023-12-22T14:23:17;4.00;;;1.43;;
19877;SDS011;10101;52.204;9.910;2023-12-22T14:25:45;6.30;;;1.30;;
19877;SDS011;10101;52.204;9.910;2023-12-22T14:28:11;7.57;;;1.40;;
19877;SDS011;10101;52.204;9.910;2023-12-22T14:30:38;6.73;;;1.57;;
19877;SDS011;10101;52.204;9.910;2023-12-22T14:33:05;5.83;;;1.07;;
19877;SDS011;10101;52.204;9.910;2023-12-22T14:35:32;7.23;;;0.90;;
19877;SDS011;10101;52.204;9.910;2023-12-22T14:37:58;6.47;;;1.10;;
19877;SDS011;10101;52.204;9.910;2023-12-22T14:40:25;4.23;;;1.40;;
19877;SDS011;10101;52.204;9.910;2023-12-22T14:42:53;7.97;;;1.70;;
19877;SDS011;10101;52.204;9.910;2023-12-22T14:45:20;8.10;;;1.67;;